sensor_id;sensor_type;location;lat;lon;timestamp;P1;durP1;ratioP1;P2;durP2;ratioP2
8982;SDS011;20979;59.850;10.660;2023-11-19T00:01:36;11.87;;;7.57;;
8982;SDS011;20979;59.850;10.660;2023-11-19T00:04:03;9.57;;;7.77;;
8982;SDS011;20979;59.850;10.660;2023-11-19T00:06:32;9.43;;;7.60;;
8982;SDS011;20979;59.850;10.660;2023-11-19T00:08:59;10.47;;;7.43;;
8982;SDS011;20979;59.850;10.660;2023-11-19T00:11:29;8.87;;;7.37;;
8982;SDS011;20979;59.850;10.660;2023-11-19T00:13:56;9.30;;;7.40;;
8982;SDS011;20979;59.850;10.660;2023-11-19T00:16:23;9.40;;;7.40;;
8982;SDS011;20979;59.850;10.660;2023-11-19T00:18:51;12.00;;;7.70;;
8982;SDS011;20979;59.850;10.660;2023-11-19T00:21:20;10.43;;;7.23;;
8982;SDS011;20979;59.850;10.660;2023-11-19T00:23:49;9.17;;;7.13;;
8982;SDS011;20979;59.850;10.660;2023-11-19T00:26:17;9.53;;;7.27;;
8982;SDS011;20979;59.850;10.660;2023-11-19T00:28:44;8.87;;;7.00;;
8982;SDS011;20979;59.850;10.660;2023-11-19T00:31:13;9.13;;;7.43;;
8982;SDS011;20979;59.850;10.660;2023-11-19T00:33:40;9.33;;;7.40;;
8982;SDS011;20979;59.850;10.660;2023-11-19T00:36:07;9.20;;;6.70;;
8982;SDS011;20979;59.850;10.660;2023-11-19T00:38:35;8.37;;;6.70;;
8982;SDS011;20979;59.850;10.660;2023-11-19T00:41:04;7.87;;;6.50;;
8982;SDS011;20979;59.850;10.660;2023-11-19T00:43:31;9.53;;;6.93;;
8982;SDS011;20979;59.850;10.660;2023-11-19T00:45:58;7.97;;;6.27;;
8982;SDS011;20979;59.850;10.660;2023-11-19T00:48:26;7.67;;;6.63;;
8982;SDS011;20979;59.850;10.660;2023-11-19T00:50:53;8.83;;;6.70;;
8982;SDS011;20979;59.850;10.660;2023-11-19T00:53:20;9.80;;;7.20;;
8982;SDS011;20979;59.850;10.660;2023-11-19T00:55:48;11.13;;;7.07;;
8982;SDS011;20979;59.850;10.660;2023-11-19T00:58:16;9.23;;;7.00;;
8982;SDS011;20979;59.850;10.660;2023-11-19T01:00:44;9.97;;;7.00;;
8982;SDS011;20979;59.850;10.660;2023-11-19T01:03:11;8.90;;;7.00;;
8982;SDS011;20979;59.850;10.660;2023-11-19T01:05:40;8.07;;;6.27;;
8982;SDS011;20979;59.850;10.660;2023-11-19T01:08:08;8.93;;;7.27;;
8982;SDS011;20979;59.850;10.660;2023-11-19T01:10:36;7.93;;;6.43;;
8982;SDS011;20979;59.850;10.660;2023-11-19T01:13:03;8.70;;;6.97;;
8982;SDS011;20979;59.850;10.660;2023-11-19T01:15:33;9.13;;;6.80;;
8982;SDS011;20979;59.850;10.660;2023-11-19T01:18:00;10.30;;;6.63;;
8982;SDS011;20979;59.850;10.660;2023-11-19T01:20:30;8.33;;;6.50;;
8982;SDS011;20979;59.850;10.660;2023-11-19T01:22:59;10.57;;;6.73;;
8982;SDS011;20979;59.850;10.660;2023-11-19T01:25:26;9.07;;;6.43;;
8982;SDS011;20979;59.850;10.660;2023-11-19T01:27:53;8.60;;;7.03;;
8982;SDS011;20979;59.850;10.660;2023-11-19T01:30:23;10.70;;;6.93;;
8982;SDS011;20979;59.850;10.660;2023-11-19T01:32:52;8.67;;;6.67;;
8982;SDS011;20979;59.850;10.660;2023-11-19T01:35:19;10.23;;;6.93;;
8982;SDS011;20979;59.850;10.660;2023-11-19T01:37:48;9.17;;;6.90;;
8982;SDS011;20979;59.850;10.660;2023-11-19T01:40:19;11.00;;;7.97;;
8982;SDS011;20979;59.850;10.660;2023-11-19T01:42:47;9.80;;;7.33;;
8982;SDS011;20979;59.850;10.660;2023-11-19T01:45:22;13.23;;;7.30;;
8982;SDS011;20979;59.850;10.660;2023-11-19T01:47:55;10.40;;;7.77;;
8982;SDS011;20979;59.850;10.660;2023-11-19T01:50:23;9.63;;;7.30;;
8982;SDS011;20979;59.850;10.660;2023-11-19T01:52:50;9.10;;;7.20;;
8982;SDS011;20979;59.850;10.660;2023-11-19T01:55:19;10.60;;;7.70;;
8982;SDS011;20979;59.850;10.660;2023-11-19T01:57:47;10.33;;;7.63;;
8982;SDS011;20979;59.850;10.660;2023-11-19T02:00:14;10.03;;;7.20;;
8982;SDS011;20979;59.850;10.660;2023-11-19T02:02:42;10.27;;;7.30;;
8982;SDS011;20979;59.850;10.660;2023-11-19T02:05:12;9.00;;;6.77;;
8982;SDS011;20979;59.850;10.660;2023-11-19T02:07:40;10.73;;;7.00;;
8982;SDS011;20979;59.850;10.660;2023-11-19T02:10:07;10.50;;;7.23;;
8982;SDS011;20979;59.850;10.660;2023-11-19T02:12:38;9.83;;;6.47;;
8982;SDS011;20979;59.850;10.660;2023-11-19T02:15:08;10.60;;;6.57;;
8982;SDS011;20979;59.850;10.660;2023-11-19T02:17:35;9.07;;;6.27;;
8982;SDS011;20979;59.850;10.660;2023-11-19T02:20:03;8.20;;;6.23;;
8982;SDS011;20979;59.850;10.660;2023-11-19T02:22:33;8.33;;;6.60;;
8982;SDS011;20979;59.850;10.660;2023-11-19T02:25:00;7.00;;;6.27;;
8982;SDS011;20979;59.850;10.660;2023-11-19T02:27:30;7.97;;;6.13;;
8982;SDS011;20979;59.850;10.660;2023-11-19T02:30:00;6.37;;;5.67;;
8982;SDS011;20979;59.850;10.660;2023-11-19T02:32:31;7.37;;;5.77;;
8982;SDS011;20979;59.850;10.660;2023-11-19T02:34:58;7.00;;;5.63;;
8982;SDS011;20979;59.850;10.660;2023-11-19T02:37:25;7.13;;;5.40;;
8982;SDS011;20979;59.850;10.660;2023-11-19T02:39:53;6.43;;;5.10;;
8982;SDS011;20979;59.850;10.660;2023-11-19T02:42:21;8.33;;;6.40;;
8982;SDS011;20979;59.850;10.660;2023-11-19T02:44:48;6.57;;;5.23;;
8982;SDS011;20979;59.850;10.660;2023-11-19T02:47:17;9.27;;;5.93;;
8982;SDS011;20979;59.850;10.660;2023-11-19T02:49:46;6.33;;;5.30;;
8982;SDS011;20979;59.850;10.660;2023-11-19T02:52:14;6.07;;;5.20;;
8982;SDS011;20979;59.850;10.660;2023-11-19T02:54:41;7.17;;;5.50;;
8982;SDS011;20979;59.850;10.660;2023-11-19T02:57:09;7.17;;;5.27;;
8982;SDS011;20979;59.850;10.660;2023-11-19T02:59:37;6.13;;;4.97;;
8982;SDS011;20979;59.850;10.660;2023-11-19T03:02:06;7.57;;;5.10;;
8982;SDS011;20979;59.850;10.660;2023-11-19T03:04:38;5.40;;;4.77;;
8982;SDS011;20979;59.850;10.660;2023-11-19T03:07:05;7.70;;;4.43;;
8982;SDS011;20979;59.850;10.660;2023-11-19T03:09:33;6.43;;;4.83;;
8982;SDS011;20979;59.850;10.660;2023-11-19T03:12:01;5.97;;;4.63;;
8982;SDS011;20979;59.850;10.660;2023-11-19T03:14:32;4.87;;;4.20;;
8982;SDS011;20979;59.850;10.660;2023-11-19T03:17:00;4.83;;;4.20;;
8982;SDS011;20979;59.850;10.660;2023-11-19T03:19:28;6.13;;;4.03;;
8982;SDS011;20979;59.850;10.660;2023-11-19T03:21:57;4.93;;;3.80;;
8982;SDS011;20979;59.850;10.660;2023-11-19T03:24:24;6.13;;;4.13;;
8982;SDS011;20979;59.850;10.660;2023-11-19T03:26:52;5.43;;;3.93;;
8982;SDS011;20979;59.850;10.660;2023-11-19T03:29:19;4.30;;;3.90;;
8982;SDS011;20979;59.850;10.660;2023-11-19T03:31:48;4.30;;;3.83;;
8982;SDS011;20979;59.850;10.660;2023-11-19T03:34:15;4.10;;;3.60;;
8982;SDS011;20979;59.850;10.660;2023-11-19T03:36:42;6.03;;;4.20;;
8982;SDS011;20979;59.850;10.660;2023-11-19T03:39:12;5.07;;;4.30;;
8982;SDS011;20979;59.850;10.660;2023-11-19T03:41:39;6.37;;;4.50;;
8982;SDS011;20979;59.850;10.660;2023-11-19T03:44:06;5.77;;;4.50;;
8982;SDS011;20979;59.850;10.660;2023-11-19T03:46:34;4.90;;;4.40;;
8982;SDS011;20979;59.850;10.660;2023-11-19T03:49:01;4.87;;;4.30;;
8982;SDS011;20979;59.850;10.660;2023-11-19T03:51:29;5.77;;;4.43;;
8982;SDS011;20979;59.850;10.660;2023-11-19T03:53:56;4.90;;;4.33;;
8982;SDS011;20979;59.850;10.660;2023-11-19T03:56:25;5.90;;;4.57;;
8982;SDS011;20979;59.850;10.660;2023-11-19T03:58:53;5.60;;;4.27;;
8982;SDS011;20979;59.850;10.660;2023-11-19T04:01:20;5.13;;;4.50;;
8982;SDS011;20979;59.850;10.660;2023-11-19T04:03:47;4.47;;;4.00;;
8982;SDS011;20979;59.850;10.660;2023-11-19T04:06:15;4.67;;;4.20;;
8982;SDS011;20979;59.850;10.660;2023-11-19T04:08:42;5.20;;;3.93;;
8982;SDS011;20979;59.850;10.660;2023-11-19T04:11:10;5.87;;;4.77;;
8982;SDS011;20979;59.850;10.660;2023-11-19T04:13:38;6.57;;;4.70;;
8982;SDS011;20979;59.850;10.660;2023-11-19T04:16:06;7.83;;;4.10;;
8982;SDS011;20979;59.850;10.660;2023-11-19T04:18:33;4.80;;;4.13;;
8982;SDS011;20979;59.850;10.660;2023-11-19T04:21:01;5.27;;;4.57;;
8982;SDS011;20979;59.850;10.660;2023-11-19T04:23:28;5.07;;;4.57;;
8982;SDS011;20979;59.850;10.660;2023-11-19T04:25:56;5.77;;;4.53;;
8982;SDS011;20979;59.850;10.660;2023-11-19T04:28:24;4.83;;;3.80;;
8982;SDS011;20979;59.850;10.660;2023-11-19T04:30:53;5.87;;;4.47;;
8982;SDS011;20979;59.850;10.660;2023-11-19T04:33:21;6.83;;;4.50;;
8982;SDS011;20979;59.850;10.660;2023-11-19T04:35:48;5.60;;;4.00;;
8982;SDS011;20979;59.850;10.660;2023-11-19T04:38:16;4.83;;;4.20;;
8982;SDS011;20979;59.850;10.660;2023-11-19T04:40:43;5.73;;;4.23;;
8982;SDS011;20979;59.850;10.660;2023-11-19T04:43:10;5.20;;;4.30;;
8982;SDS011;20979;59.850;10.660;2023-11-19T04:45:38;6.23;;;4.50;;
8982;SDS011;20979;59.850;10.660;2023-11-19T04:48:06;6.13;;;4.47;;
8982;SDS011;20979;59.850;10.660;2023-11-19T04:50:35;5.20;;;4.50;;
8982;SDS011;20979;59.850;10.660;2023-11-19T04:53:02;5.03;;;4.30;;
8982;SDS011;20979;59.850;10.660;2023-11-19T04:55:29;6.20;;;4.50;;
8982;SDS011;20979;59.850;10.660;2023-11-19T04:57:56;6.37;;;4.57;;
8982;SDS011;20979;59.850;10.660;2023-11-19T05:00:24;5.83;;;4.33;;
8982;SDS011;20979;59.850;10.660;2023-11-19T05:02:51;5.20;;;4.03;;
8982;SDS011;20979;59.850;10.660;2023-11-19T05:05:20;5.37;;;4.20;;
8982;SDS011;20979;59.850;10.660;2023-11-19T05:07:48;4.60;;;4.13;;
8982;SDS011;20979;59.850;10.660;2023-11-19T05:10:15;5.67;;;4.60;;
8982;SDS011;20979;59.850;10.660;2023-11-19T05:12:42;6.83;;;4.80;;
8982;SDS011;20979;59.850;10.660;2023-11-19T05:15:10;4.97;;;4.30;;
8982;SDS011;20979;59.850;10.660;2023-11-19T05:17:38;5.17;;;4.17;;
8982;SDS011;20979;59.850;10.660;2023-11-19T05:20:05;5.70;;;4.17;;
8982;SDS011;20979;59.850;10.660;2023-11-19T05:22:39;7.07;;;4.40;;
8982;SDS011;20979;59.850;10.660;2023-11-19T05:25:07;5.07;;;4.00;;
8982;SDS011;20979;59.850;10.660;2023-11-19T05:27:35;5.10;;;4.33;;
8982;SDS011;20979;59.850;10.660;2023-11-19T05:30:04;5.27;;;4.10;;
8982;SDS011;20979;59.850;10.660;2023-11-19T05:32:32;5.80;;;4.27;;
8982;SDS011;20979;59.850;10.660;2023-11-19T05:35:00;7.47;;;4.50;;
8982;SDS011;20979;59.850;10.660;2023-11-19T05:37:28;6.13;;;4.27;;
8982;SDS011;20979;59.850;10.660;2023-11-19T05:39:56;5.53;;;4.23;;
8982;SDS011;20979;59.850;10.660;2023-11-19T05:42:25;4.90;;;3.90;;
8982;SDS011;20979;59.850;10.660;2023-11-19T05:44:52;5.17;;;4.03;;
8982;SDS011;20979;59.850;10.660;2023-11-19T05:47:19;5.30;;;4.40;;
8982;SDS011;20979;59.850;10.660;2023-11-19T05:49:47;5.37;;;4.23;;
8982;SDS011;20979;59.850;10.660;2023-11-19T05:52:14;6.30;;;4.40;;
8982;SDS011;20979;59.850;10.660;2023-11-19T05:54:41;5.17;;;4.47;;
8982;SDS011;20979;59.850;10.660;2023-11-19T05:57:10;6.77;;;4.23;;
8982;SDS011;20979;59.850;10.660;2023-11-19T05:59:39;5.43;;;4.57;;
8982;SDS011;20979;59.850;10.660;2023-11-19T06:02:06;5.43;;;4.50;;
8982;SDS011;20979;59.850;10.660;2023-11-19T06:04:33;6.93;;;4.77;;
8982;SDS011;20979;59.850;10.660;2023-11-19T06:07:02;5.23;;;4.23;;
8982;SDS011;20979;59.850;10.660;2023-11-19T06:09:30;4.90;;;4.30;;
8982;SDS011;20979;59.850;10.660;2023-11-19T06:11:59;5.70;;;3.97;;
8982;SDS011;20979;59.850;10.660;2023-11-19T06:14:28;5.37;;;4.63;;
8982;SDS011;20979;59.850;10.660;2023-11-19T06:16:56;6.17;;;4.47;;
8982;SDS011;20979;59.850;10.660;2023-11-19T06:19:23;6.73;;;4.60;;
8982;SDS011;20979;59.850;10.660;2023-11-19T06:21:51;5.70;;;4.67;;
8982;SDS011;20979;59.850;10.660;2023-11-19T06:24:18;6.27;;;4.27;;
8982;SDS011;20979;59.850;10.660;2023-11-19T06:26:45;5.87;;;4.23;;
8982;SDS011;20979;59.850;10.660;2023-11-19T06:29:13;6.63;;;4.70;;
8982;SDS011;20979;59.850;10.660;2023-11-19T06:31:45;5.17;;;4.27;;
8982;SDS011;20979;59.850;10.660;2023-11-19T06:34:13;6.03;;;4.37;;
8982;SDS011;20979;59.850;10.660;2023-11-19T06:36:41;6.00;;;4.57;;
8982;SDS011;20979;59.850;10.660;2023-11-19T06:39:08;6.83;;;5.20;;
8982;SDS011;20979;59.850;10.660;2023-11-19T06:41:36;7.37;;;4.67;;
8982;SDS011;20979;59.850;10.660;2023-11-19T06:44:04;6.23;;;4.63;;
8982;SDS011;20979;59.850;10.660;2023-11-19T06:46:31;5.80;;;4.67;;
8982;SDS011;20979;59.850;10.660;2023-11-19T06:49:00;6.73;;;4.83;;
8982;SDS011;20979;59.850;10.660;2023-11-19T06:51:28;6.37;;;4.73;;
8982;SDS011;20979;59.850;10.660;2023-11-19T06:53:55;6.60;;;4.70;;
8982;SDS011;20979;59.850;10.660;2023-11-19T06:56:24;7.33;;;5.00;;
8982;SDS011;20979;59.850;10.660;2023-11-19T06:58:52;6.20;;;4.60;;
8982;SDS011;20979;59.850;10.660;2023-11-19T07:01:19;6.57;;;5.07;;
8982;SDS011;20979;59.850;10.660;2023-11-19T07:03:46;7.20;;;5.20;;
8982;SDS011;20979;59.850;10.660;2023-11-19T07:06:16;5.87;;;4.40;;
8982;SDS011;20979;59.850;10.660;2023-11-19T07:08:43;6.77;;;4.93;;
8982;SDS011;20979;59.850;10.660;2023-11-19T07:11:11;6.77;;;5.27;;
8982;SDS011;20979;59.850;10.660;2023-11-19T07:13:41;6.13;;;4.70;;
8982;SDS011;20979;59.850;10.660;2023-11-19T07:16:08;6.97;;;5.30;;
8982;SDS011;20979;59.850;10.660;2023-11-19T07:18:36;7.77;;;5.50;;
8982;SDS011;20979;59.850;10.660;2023-11-19T07:21:04;7.53;;;5.30;;
8982;SDS011;20979;59.850;10.660;2023-11-19T07:23:36;6.77;;;5.03;;
8982;SDS011;20979;59.850;10.660;2023-11-19T07:26:04;6.30;;;4.90;;
8982;SDS011;20979;59.850;10.660;2023-11-19T07:28:33;7.63;;;5.20;;
8982;SDS011;20979;59.850;10.660;2023-11-19T07:31:00;6.53;;;5.10;;
8982;SDS011;20979;59.850;10.660;2023-11-19T07:33:28;6.13;;;4.87;;
8982;SDS011;20979;59.850;10.660;2023-11-19T07:35:55;7.00;;;4.93;;
8982;SDS011;20979;59.850;10.660;2023-11-19T07:38:22;8.33;;;5.67;;
8982;SDS011;20979;59.850;10.660;2023-11-19T07:40:51;8.37;;;5.93;;
8982;SDS011;20979;59.850;10.660;2023-11-19T07:43:19;6.23;;;5.10;;
8982;SDS011;20979;59.850;10.660;2023-11-19T07:45:46;8.10;;;5.43;;
8982;SDS011;20979;59.850;10.660;2023-11-19T07:48:13;7.63;;;5.60;;
8982;SDS011;20979;59.850;10.660;2023-11-19T07:50:40;8.17;;;5.20;;
8982;SDS011;20979;59.850;10.660;2023-11-19T07:53:08;8.03;;;5.53;;
8982;SDS011;20979;59.850;10.660;2023-11-19T07:55:37;6.97;;;5.23;;
8982;SDS011;20979;59.850;10.660;2023-11-19T07:58:06;6.73;;;5.27;;
8982;SDS011;20979;59.850;10.660;2023-11-19T08:00:33;7.67;;;5.20;;
8982;SDS011;20979;59.850;10.660;2023-11-19T08:03:00;7.90;;;5.50;;
8982;SDS011;20979;59.850;10.660;2023-11-19T08:05:28;8.23;;;5.83;;
8982;SDS011;20979;59.850;10.660;2023-11-19T08:07:55;7.30;;;5.77;;
8982;SDS011;20979;59.850;10.660;2023-11-19T08:10:23;8.37;;;5.30;;
8982;SDS011;20979;59.850;10.660;2023-11-19T08:12:50;7.23;;;5.47;;
8982;SDS011;20979;59.850;10.660;2023-11-19T08:15:19;8.37;;;6.03;;
8982;SDS011;20979;59.850;10.660;2023-11-19T08:17:46;7.33;;;5.37;;
8982;SDS011;20979;59.850;10.660;2023-11-19T08:20:14;6.67;;;5.20;;
8982;SDS011;20979;59.850;10.660;2023-11-19T08:22:41;9.47;;;5.37;;
8982;SDS011;20979;59.850;10.660;2023-11-19T08:25:09;6.03;;;4.47;;
8982;SDS011;20979;59.850;10.660;2023-11-19T08:27:36;6.47;;;5.13;;
8982;SDS011;20979;59.850;10.660;2023-11-19T08:30:04;7.17;;;5.07;;
8982;SDS011;20979;59.850;10.660;2023-11-19T08:32:32;7.80;;;5.37;;
8982;SDS011;20979;59.850;10.660;2023-11-19T08:35:00;7.20;;;5.50;;
8982;SDS011;20979;59.850;10.660;2023-11-19T08:37:27;7.90;;;5.53;;
8982;SDS011;20979;59.850;10.660;2023-11-19T08:39:55;7.10;;;5.17;;
8982;SDS011;20979;59.850;10.660;2023-11-19T08:42:22;7.80;;;4.73;;
8982;SDS011;20979;59.850;10.660;2023-11-19T08:44:50;6.70;;;5.10;;
8982;SDS011;20979;59.850;10.660;2023-11-19T08:47:19;6.13;;;4.63;;
8982;SDS011;20979;59.850;10.660;2023-11-19T08:49:49;9.20;;;5.10;;
8982;SDS011;20979;59.850;10.660;2023-11-19T08:52:18;6.07;;;4.70;;
8982;SDS011;20979;59.850;10.660;2023-11-19T08:54:45;5.50;;;4.67;;
8982;SDS011;20979;59.850;10.660;2023-11-19T08:57:12;7.50;;;5.00;;
8982;SDS011;20979;59.850;10.660;2023-11-19T08:59:40;7.23;;;5.47;;
8982;SDS011;20979;59.850;10.660;2023-11-19T09:02:07;7.10;;;5.17;;
8982;SDS011;20979;59.850;10.660;2023-11-19T09:04:34;5.30;;;4.43;;
8982;SDS011;20979;59.850;10.660;2023-11-19T09:07:03;7.23;;;5.00;;
8982;SDS011;20979;59.850;10.660;2023-11-19T09:09:31;6.50;;;4.93;;
8982;SDS011;20979;59.850;10.660;2023-11-19T09:12:00;5.90;;;4.87;;
8982;SDS011;20979;59.850;10.660;2023-11-19T09:14:28;6.37;;;4.63;;
8982;SDS011;20979;59.850;10.660;2023-11-19T09:16:55;7.53;;;5.03;;
8982;SDS011;20979;59.850;10.660;2023-11-19T09:19:23;7.30;;;5.03;;
8982;SDS011;20979;59.850;10.660;2023-11-19T09:21:51;12.13;;;8.53;;
8982;SDS011;20979;59.850;10.660;2023-11-19T09:24:20;10.30;;;6.13;;
8982;SDS011;20979;59.850;10.660;2023-11-19T09:26:47;7.50;;;5.47;;
8982;SDS011;20979;59.850;10.660;2023-11-19T09:29:14;11.07;;;6.20;;
8982;SDS011;20979;59.850;10.660;2023-11-19T09:31:42;8.03;;;5.60;;
8982;SDS011;20979;59.850;10.660;2023-11-19T09:34:09;7.80;;;5.30;;
8982;SDS011;20979;59.850;10.660;2023-11-19T09:36:36;11.63;;;7.43;;
8982;SDS011;20979;59.850;10.660;2023-11-19T09:39:04;6.17;;;5.07;;
8982;SDS011;20979;59.850;10.660;2023-11-19T09:41:34;6.60;;;5.10;;
8982;SDS011;20979;59.850;10.660;2023-11-19T09:44:02;5.33;;;4.40;;
8982;SDS011;20979;59.850;10.660;2023-11-19T09:46:29;6.00;;;4.57;;
8982;SDS011;20979;59.850;10.660;2023-11-19T09:48:57;6.67;;;4.57;;
8982;SDS011;20979;59.850;10.660;2023-11-19T09:51:24;4.70;;;4.17;;
8982;SDS011;20979;59.850;10.660;2023-11-19T09:53:52;6.90;;;5.00;;
8982;SDS011;20979;59.850;10.660;2023-11-19T09:56:19;6.87;;;5.07;;
8982;SDS011;20979;59.850;10.660;2023-11-19T09:58:48;5.33;;;4.40;;
8982;SDS011;20979;59.850;10.660;2023-11-19T10:01:16;5.87;;;4.83;;
8982;SDS011;20979;59.850;10.660;2023-11-19T10:03:43;6.47;;;4.80;;
8982;SDS011;20979;59.850;10.660;2023-11-19T10:06:14;5.83;;;4.53;;
8982;SDS011;20979;59.850;10.660;2023-11-19T10:08:41;5.07;;;4.37;;
8982;SDS011;20979;59.850;10.660;2023-11-19T10:11:09;6.43;;;4.60;;
8982;SDS011;20979;59.850;10.660;2023-11-19T10:13:37;6.10;;;4.90;;
8982;SDS011;20979;59.850;10.660;2023-11-19T10:16:09;6.23;;;4.40;;
8982;SDS011;20979;59.850;10.660;2023-11-19T10:18:36;6.90;;;5.03;;
8982;SDS011;20979;59.850;10.660;2023-11-19T10:21:05;6.33;;;4.90;;
8982;SDS011;20979;59.850;10.660;2023-11-19T10:23:47;6.80;;;5.20;;
8982;SDS011;20979;59.850;10.660;2023-11-19T10:26:15;6.77;;;5.03;;
8982;SDS011;20979;59.850;10.660;2023-11-19T10:28:42;7.53;;;5.03;;
8982;SDS011;20979;59.850;10.660;2023-11-19T10:31:12;5.33;;;4.60;;
8982;SDS011;20979;59.850;10.660;2023-11-19T10:33:40;6.47;;;5.00;;
8982;SDS011;20979;59.850;10.660;2023-11-19T10:36:10;8.00;;;5.47;;
8982;SDS011;20979;59.850;10.660;2023-11-19T10:38:37;6.83;;;5.13;;
8982;SDS011;20979;59.850;10.660;2023-11-19T10:41:05;7.23;;;5.33;;
8982;SDS011;20979;59.850;10.660;2023-11-19T10:43:42;10.53;;;5.50;;
8982;SDS011;20979;59.850;10.660;2023-11-19T10:46:11;6.47;;;5.20;;
8982;SDS011;20979;59.850;10.660;2023-11-19T10:48:40;6.73;;;5.37;;
8982;SDS011;20979;59.850;10.660;2023-11-19T10:51:07;6.53;;;5.00;;
8982;SDS011;20979;59.850;10.660;2023-11-19T10:53:36;6.10;;;4.73;;
8982;SDS011;20979;59.850;10.660;2023-11-19T10:56:04;8.10;;;4.90;;
8982;SDS011;20979;59.850;10.660;2023-11-19T10:58:33;7.60;;;4.93;;
8982;SDS011;20979;59.850;10.660;2023-11-19T11:01:03;6.33;;;5.00;;
8982;SDS011;20979;59.850;10.660;2023-11-19T11:03:38;5.57;;;4.87;;
8982;SDS011;20979;59.850;10.660;2023-11-19T11:06:07;7.43;;;4.53;;
8982;SDS011;20979;59.850;10.660;2023-11-19T11:08:36;7.07;;;4.73;;
8982;SDS011;20979;59.850;10.660;2023-11-19T11:11:04;7.57;;;4.70;;
8982;SDS011;20979;59.850;10.660;2023-11-19T11:13:32;6.03;;;4.80;;
8982;SDS011;20979;59.850;10.660;2023-11-19T11:16:00;5.00;;;4.50;;
8982;SDS011;20979;59.850;10.660;2023-11-19T11:18:29;5.73;;;4.60;;
8982;SDS011;20979;59.850;10.660;2023-11-19T11:20:59;7.17;;;4.43;;
8982;SDS011;20979;59.850;10.660;2023-11-19T11:23:45;5.67;;;4.53;;
8982;SDS011;20979;59.850;10.660;2023-11-19T11:26:23;5.53;;;4.17;;
8982;SDS011;20979;59.850;10.660;2023-11-19T11:28:56;5.57;;;4.33;;
8982;SDS011;20979;59.850;10.660;2023-11-19T11:31:29;6.63;;;5.03;;
8982;SDS011;20979;59.850;10.660;2023-11-19T11:34:02;6.17;;;4.50;;
8982;SDS011;20979;59.850;10.660;2023-11-19T11:36:33;6.07;;;4.77;;
8982;SDS011;20979;59.850;10.660;2023-11-19T11:39:06;8.07;;;5.97;;
8982;SDS011;20979;59.850;10.660;2023-11-19T11:41:34;6.13;;;4.00;;
8982;SDS011;20979;59.850;10.660;2023-11-19T11:44:02;7.50;;;4.63;;
8982;SDS011;20979;59.850;10.660;2023-11-19T11:49:13;7.03;;;5.30;;
8982;SDS011;20979;59.850;10.660;2023-11-19T11:51:57;8.03;;;4.60;;
8982;SDS011;20979;59.850;10.660;2023-11-19T11:54:29;25.77;;;16.43;;
8982;SDS011;20979;59.850;10.660;2023-11-19T11:57:07;13.23;;;7.57;;
8982;SDS011;20979;59.850;10.660;2023-11-19T12:02:21;8.33;;;4.63;;
8982;SDS011;20979;59.850;10.660;2023-11-19T12:04:49;8.20;;;4.70;;
8982;SDS011;20979;59.850;10.660;2023-11-19T12:07:18;6.00;;;4.50;;
8982;SDS011;20979;59.850;10.660;2023-11-19T12:09:52;5.60;;;4.43;;
8982;SDS011;20979;59.850;10.660;2023-11-19T12:12:26;6.07;;;4.23;;
8982;SDS011;20979;59.850;10.660;2023-11-19T12:15:00;5.77;;;5.00;;
8982;SDS011;20979;59.850;10.660;2023-11-19T12:17:37;5.83;;;4.37;;
8982;SDS011;20979;59.850;10.660;2023-11-19T12:20:05;9.47;;;5.50;;
8982;SDS011;20979;59.850;10.660;2023-11-19T12:22:34;6.57;;;4.80;;
8982;SDS011;20979;59.850;10.660;2023-11-19T12:25:03;5.40;;;4.07;;
8982;SDS011;20979;59.850;10.660;2023-11-19T12:27:31;4.80;;;4.30;;
8982;SDS011;20979;59.850;10.660;2023-11-19T12:29:59;6.73;;;4.33;;
8982;SDS011;20979;59.850;10.660;2023-11-19T12:32:37;7.37;;;5.03;;
8982;SDS011;20979;59.850;10.660;2023-11-19T12:35:05;7.27;;;5.43;;
8982;SDS011;20979;59.850;10.660;2023-11-19T12:37:38;7.80;;;5.40;;
8982;SDS011;20979;59.850;10.660;2023-11-19T12:40:11;6.50;;;4.40;;
8982;SDS011;20979;59.850;10.660;2023-11-19T12:42:39;6.27;;;4.30;;
8982;SDS011;20979;59.850;10.660;2023-11-19T12:45:06;5.53;;;4.20;;
8982;SDS011;20979;59.850;10.660;2023-11-19T12:47:35;6.07;;;4.40;;
8982;SDS011;20979;59.850;10.660;2023-11-19T12:50:03;8.07;;;4.73;;
8982;SDS011;20979;59.850;10.660;2023-11-19T12:52:31;5.40;;;4.40;;
8982;SDS011;20979;59.850;10.660;2023-11-19T12:54:59;5.73;;;4.47;;
8982;SDS011;20979;59.850;10.660;2023-11-19T12:57:37;5.50;;;4.77;;
8982;SDS011;20979;59.850;10.660;2023-11-19T13:00:05;6.50;;;4.70;;
8982;SDS011;20979;59.850;10.660;2023-11-19T13:02:45;6.13;;;4.70;;
8982;SDS011;20979;59.850;10.660;2023-11-19T13:05:23;6.07;;;4.40;;
8982;SDS011;20979;59.850;10.660;2023-11-19T13:07:51;6.83;;;4.73;;
8982;SDS011;20979;59.850;10.660;2023-11-19T13:10:18;5.20;;;4.27;;
8982;SDS011;20979;59.850;10.660;2023-11-19T13:13:00;5.73;;;4.37;;
8982;SDS011;20979;59.850;10.660;2023-11-19T13:15:27;5.90;;;4.60;;
8982;SDS011;20979;59.850;10.660;2023-11-19T13:17:55;6.53;;;4.40;;
8982;SDS011;20979;59.850;10.660;2023-11-19T13:20:22;7.23;;;4.97;;
8982;SDS011;20979;59.850;10.660;2023-11-19T13:22:59;7.83;;;5.37;;
8982;SDS011;20979;59.850;10.660;2023-11-19T13:25:26;7.07;;;4.90;;
8982;SDS011;20979;59.850;10.660;2023-11-19T13:27:54;7.13;;;4.80;;
8982;SDS011;20979;59.850;10.660;2023-11-19T13:30:23;6.73;;;4.80;;
8982;SDS011;20979;59.850;10.660;2023-11-19T13:32:51;5.73;;;4.60;;
8982;SDS011;20979;59.850;10.660;2023-11-19T13:35:20;5.37;;;3.80;;
8982;SDS011;20979;59.850;10.660;2023-11-19T13:37:47;5.40;;;4.37;;
8982;SDS011;20979;59.850;10.660;2023-11-19T13:40:16;5.63;;;3.90;;
8982;SDS011;20979;59.850;10.660;2023-11-19T13:42:44;4.90;;;4.40;;
8982;SDS011;20979;59.850;10.660;2023-11-19T13:45:12;5.00;;;3.90;;
8982;SDS011;20979;59.850;10.660;2023-11-19T13:47:41;5.80;;;4.53;;
8982;SDS011;20979;59.850;10.660;2023-11-19T13:50:09;6.37;;;4.50;;
8982;SDS011;20979;59.850;10.660;2023-11-19T13:52:37;6.10;;;4.40;;
8982;SDS011;20979;59.850;10.660;2023-11-19T13:55:05;5.63;;;4.43;;
8982;SDS011;20979;59.850;10.660;2023-11-19T13:57:33;5.63;;;4.40;;
8982;SDS011;20979;59.850;10.660;2023-11-19T14:00:01;5.27;;;4.27;;
8982;SDS011;20979;59.850;10.660;2023-11-19T14:02:30;5.20;;;4.30;;
8982;SDS011;20979;59.850;10.660;2023-11-19T14:04:59;6.20;;;4.40;;
8982;SDS011;20979;59.850;10.660;2023-11-19T14:07:27;7.80;;;4.77;;
8982;SDS011;20979;59.850;10.660;2023-11-19T14:09:54;5.23;;;4.50;;
8982;SDS011;20979;59.850;10.660;2023-11-19T14:12:21;4.80;;;4.30;;
8982;SDS011;20979;59.850;10.660;2023-11-19T14:14:49;5.57;;;4.63;;
8982;SDS011;20979;59.850;10.660;2023-11-19T14:17:16;6.67;;;4.60;;
8982;SDS011;20979;59.850;10.660;2023-11-19T14:19:43;5.17;;;4.37;;
8982;SDS011;20979;59.850;10.660;2023-11-19T14:22:12;5.97;;;4.43;;
8982;SDS011;20979;59.850;10.660;2023-11-19T14:24:39;7.87;;;4.57;;
8982;SDS011;20979;59.850;10.660;2023-11-19T14:27:08;8.33;;;5.40;;
8982;SDS011;20979;59.850;10.660;2023-11-19T14:29:35;5.97;;;4.23;;
8982;SDS011;20979;59.850;10.660;2023-11-19T14:32:02;6.90;;;4.80;;
8982;SDS011;20979;59.850;10.660;2023-11-19T14:34:30;7.83;;;5.77;;
8982;SDS011;20979;59.850;10.660;2023-11-19T14:36:57;6.80;;;4.43;;
8982;SDS011;20979;59.850;10.660;2023-11-19T14:39:26;4.90;;;4.23;;
8982;SDS011;20979;59.850;10.660;2023-11-19T14:41:56;5.27;;;4.40;;
8982;SDS011;20979;59.850;10.660;2023-11-19T14:44:26;4.73;;;4.10;;
8982;SDS011;20979;59.850;10.660;2023-11-19T14:46:54;7.13;;;5.23;;
8982;SDS011;20979;59.850;10.660;2023-11-19T14:49:22;6.37;;;4.43;;
8982;SDS011;20979;59.850;10.660;2023-11-19T14:51:50;6.67;;;4.80;;
8982;SDS011;20979;59.850;10.660;2023-11-19T14:54:17;14.87;;;8.70;;
8982;SDS011;20979;59.850;10.660;2023-11-19T14:56:46;6.87;;;4.80;;
8982;SDS011;20979;59.850;10.660;2023-11-19T14:59:13;6.43;;;4.90;;